AFR649 LFPO-EDSB
Flight info
| Callsign | AFR649 |
|---|---|
| Flight time | N/A |
| Altitude | 24000 |
| Route | RANUX DCT LADAT |
| Aircraft | A320/M-SDE3FGHIRWY/LB1 |
Departure
| Time | 2026-05-04 08:54 |
|---|---|
| Airport | Paris-Orly Airport (LFPO) |
Arrival
| Time | N/A |
|---|---|
| Airport | Karlsruhe Baden-Baden Airport (EDSB) |
| Time | Latitude | Longitude | Altitude | Speed | Heading |
|---|---|---|---|---|---|
| 2026-05-04 08:43 | 48.72621 | 2.35804 | 294 ft | 0 kts | 75° |
| 2026-05-04 08:47 | 48.72619 | 2.35789 | 294 ft | 4 kts | 76° |
| 2026-05-04 08:47 | 48.72613 | 2.35749 | 294 ft | 4 kts | 80° |
| 2026-05-04 08:47 | 48.72609 | 2.35709 | 293 ft | 4 kts | 90° |
| 2026-05-04 08:47 | 48.72613 | 2.35670 | 294 ft | 4 kts | 124° |
| 2026-05-04 08:48 | 48.72622 | 2.35657 | 297 ft | 0 kts | 164° |
| 2026-05-04 08:50 | 48.72460 | 2.35667 | 293 ft | 5 kts | 247° |
| 2026-05-04 08:50 | 48.72433 | 2.35616 | 293 ft | 8 kts | 199° |
| 2026-05-04 08:51 | 48.72375 | 2.35634 | 294 ft | 7 kts | 164° |
| 2026-05-04 08:51 | 48.72336 | 2.35642 | 295 ft | 8 kts | 186° |
| 2026-05-04 08:51 | 48.72270 | 2.35605 | 294 ft | 11 kts | 198° |
| 2026-05-04 08:51 | 48.72182 | 2.35620 | 294 ft | 13 kts | 165° |
| 2026-05-04 08:52 | 48.72109 | 2.35649 | 292 ft | 8 kts | 163° |
| 2026-05-04 08:52 | 48.72071 | 2.35679 | 296 ft | 5 kts | 143° |
| 2026-05-04 08:52 | 48.72032 | 2.35748 | 295 ft | 12 kts | 123° |
| 2026-05-04 08:52 | 48.71989 | 2.35861 | 297 ft | 11 kts | 118° |
| 2026-05-04 08:53 | 48.71966 | 2.35942 | 293 ft | 8 kts | 105° |
| 2026-05-04 08:54 | 48.73216 | 2.42749 | 1919 ft | 178 kts | 76° |
| 2026-05-04 08:55 | 48.73565 | 2.44669 | 2246 ft | 202 kts | 76° |
| 2026-05-04 08:55 | 48.73950 | 2.46842 | 2670 ft | 226 kts | 79° |
| 2026-05-04 08:55 | 48.74072 | 2.49330 | 3141 ft | 249 kts | 89° |
| 2026-05-04 08:55 | 48.74149 | 2.52010 | 3888 ft | 259 kts | 88° |
| 2026-05-04 08:57 | 48.75658 | 2.72169 | 10351 ft | 298 kts | 83° |
| 2026-05-04 09:01 | 48.80915 | 3.25359 | 18739 ft | 396 kts | 82° |
| 2026-05-04 09:01 | 48.81400 | 3.29496 | 19256 ft | 400 kts | 82° |
| 2026-05-04 09:01 | 48.81881 | 3.33665 | 19766 ft | 404 kts | 82° |
| 2026-05-04 09:01 | 48.82594 | 3.37813 | 20256 ft | 410 kts | 72° |
| 2026-05-04 09:02 | 48.83759 | 3.41793 | 20774 ft | 416 kts | 66° |
| 2026-05-04 09:02 | 48.85052 | 3.45752 | 21317 ft | 420 kts | 66° |
| 2026-05-04 09:02 | 48.86354 | 3.49743 | 21842 ft | 424 kts | 66° |
| 2026-05-04 09:02 | 48.87666 | 3.53787 | 22301 ft | 428 kts | 67° |
| 2026-05-04 09:03 | 48.88982 | 3.57864 | 22760 ft | 432 kts | 67° |
| 2026-05-04 09:03 | 48.90307 | 3.61982 | 23229 ft | 435 kts | 67° |
| 2026-05-04 09:03 | 48.91209 | 3.64785 | 23528 ft | 438 kts | 67° |
| 2026-05-04 09:03 | 48.92549 | 3.68951 | 23871 ft | 441 kts | 67° |
| 2026-05-04 09:04 | 48.93899 | 3.73148 | 23984 ft | 445 kts | 67° |
| 2026-05-04 09:04 | 48.95270 | 3.77425 | 24001 ft | 453 kts | 67° |
| 2026-05-04 09:04 | 48.96657 | 3.81756 | 23999 ft | 456 kts | 67° |
| 2026-05-04 09:04 | 48.98046 | 3.86090 | 23991 ft | 456 kts | 67° |
| 2026-05-04 09:05 | 48.99418 | 3.90383 | 24002 ft | 456 kts | 67° |
| 2026-05-04 09:05 | 49.00807 | 3.94727 | 24000 ft | 456 kts | 67° |
| 2026-05-04 09:05 | 49.02212 | 3.99129 | 24000 ft | 457 kts | 67° |
| 2026-05-04 09:05 | 49.03579 | 4.03426 | 24000 ft | 457 kts | 68° |
| 2026-05-04 09:06 | 49.04959 | 4.07783 | 24004 ft | 457 kts | 68° |
| 2026-05-04 09:07 | 49.13893 | 4.38671 | 23990 ft | 448 kts | 84° |
| 2026-05-04 09:08 | 49.14244 | 4.43371 | 23970 ft | 444 kts | 90° |
| 2026-05-04 09:08 | 49.14473 | 4.48077 | 23981 ft | 445 kts | 90° |
| 2026-05-04 09:08 | 49.14709 | 4.52785 | 23971 ft | 445 kts | 90° |
| 2026-05-04 09:08 | 49.14955 | 4.57569 | 23978 ft | 446 kts | 90° |
| 2026-05-04 09:09 | 49.15190 | 4.62233 | 23979 ft | 446 kts | 90° |
| 2026-05-04 09:09 | 49.15425 | 4.66962 | 23990 ft | 446 kts | 90° |
| 2026-05-04 09:09 | 49.15658 | 4.71696 | 23995 ft | 448 kts | 90° |
| 2026-05-04 09:09 | 49.15887 | 4.76445 | 24002 ft | 449 kts | 89° |
| 2026-05-04 09:10 | 49.16118 | 4.81197 | 23996 ft | 448 kts | 90° |
| 2026-05-04 09:10 | 49.16345 | 4.85935 | 23989 ft | 447 kts | 90° |
| 2026-05-04 09:10 | 49.16569 | 4.90666 | 23980 ft | 447 kts | 90° |
| 2026-05-04 09:10 | 49.16787 | 4.95409 | 23977 ft | 448 kts | 90° |
| 2026-05-04 09:11 | 49.17002 | 5.00159 | 23978 ft | 448 kts | 90° |
| 2026-05-04 09:11 | 49.17219 | 5.04916 | 23981 ft | 449 kts | 90° |
| 2026-05-04 09:11 | 49.17435 | 5.09674 | 23983 ft | 450 kts | 90° |
| 2026-05-04 09:11 | 49.17649 | 5.14451 | 23988 ft | 450 kts | 90° |
| 2026-05-04 09:12 | 49.17855 | 5.19221 | 23994 ft | 450 kts | 90° |
| 2026-05-04 09:12 | 49.18061 | 5.23999 | 23995 ft | 450 kts | 90° |
| 2026-05-04 09:14 | 49.19499 | 5.57556 | 24000 ft | 454 kts | 90° |
| 2026-05-04 09:14 | 49.19694 | 5.62373 | 24002 ft | 454 kts | 90° |
| 2026-05-04 09:14 | 49.19883 | 5.67203 | 24006 ft | 455 kts | 90° |
| 2026-05-04 09:14 | 49.20072 | 5.72027 | 24009 ft | 455 kts | 90° |
| 2026-05-04 09:15 | 49.20261 | 5.76853 | 23991 ft | 455 kts | 90° |
| 2026-05-04 09:15 | 49.20450 | 5.81682 | 23997 ft | 455 kts | 90° |
| 2026-05-04 09:15 | 49.20639 | 5.86505 | 24005 ft | 455 kts | 90° |
| 2026-05-04 09:15 | 49.20826 | 5.91331 | 24009 ft | 454 kts | 90° |
| 2026-05-04 09:17 | 49.22222 | 6.29928 | 24027 ft | 455 kts | 90° |
| 2026-05-04 09:18 | 49.22392 | 6.34761 | 24015 ft | 454 kts | 90° |
| 2026-05-04 09:18 | 49.22561 | 6.39571 | 23904 ft | 452 kts | 90° |
| 2026-05-04 09:18 | 49.22725 | 6.44362 | 23672 ft | 449 kts | 90° |
| 2026-05-04 09:18 | 49.22883 | 6.49122 | 23403 ft | 448 kts | 90° |
| 2026-05-04 09:19 | 49.23034 | 6.53866 | 23137 ft | 446 kts | 90° |
| 2026-05-04 09:19 | 49.23182 | 6.58588 | 22875 ft | 444 kts | 90° |
| 2026-05-04 09:19 | 49.23329 | 6.63291 | 22596 ft | 442 kts | 90° |
| 2026-05-04 09:19 | 49.23477 | 6.67975 | 22311 ft | 440 kts | 90° |
| 2026-05-04 09:20 | 49.23624 | 6.72644 | 22049 ft | 439 kts | 90° |
| 2026-05-04 09:20 | 49.23769 | 6.77303 | 21783 ft | 437 kts | 90° |
| 2026-05-04 09:20 | 49.23911 | 6.81933 | 21526 ft | 435 kts | 90° |
| 2026-05-04 09:20 | 49.24051 | 6.86552 | 21268 ft | 433 kts | 90° |
| 2026-05-04 09:21 | 49.24186 | 6.91141 | 21012 ft | 431 kts | 90° |
| 2026-05-04 09:21 | 49.24320 | 6.95717 | 20761 ft | 430 kts | 90° |
| 2026-05-04 09:21 | 49.24452 | 7.00278 | 20507 ft | 428 kts | 90° |
| 2026-05-04 09:21 | 49.24580 | 7.04757 | 20261 ft | 426 kts | 90° |
| 2026-05-04 09:22 | 49.24706 | 7.09274 | 20013 ft | 424 kts | 90° |
| 2026-05-04 09:22 | 49.24830 | 7.13775 | 19761 ft | 422 kts | 90° |
| 2026-05-04 09:22 | 49.24950 | 7.18250 | 19519 ft | 420 kts | 90° |
| 2026-05-04 09:22 | 49.25066 | 7.22709 | 19279 ft | 418 kts | 90° |
| 2026-05-04 09:23 | 49.25181 | 7.27149 | 19044 ft | 417 kts | 90° |
| 2026-05-04 09:23 | 49.25298 | 7.31627 | 18797 ft | 415 kts | 90° |
| 2026-05-04 09:23 | 49.25374 | 7.34546 | 18649 ft | 414 kts | 90° |
| 2026-05-04 09:23 | 49.25526 | 7.40415 | 18328 ft | 412 kts | 90° |
| 2026-05-04 09:25 | 49.26238 | 7.70679 | 16463 ft | 401 kts | 90° |
| 2026-05-04 09:25 | 49.26315 | 7.74871 | 16211 ft | 399 kts | 93° |
| 2026-05-04 09:26 | 49.26028 | 7.79054 | 15951 ft | 393 kts | 104° |
| 2026-05-04 09:26 | 49.25249 | 7.83029 | 15705 ft | 388 kts | 115° |
| 2026-05-04 09:26 | 49.24026 | 7.86675 | 15461 ft | 383 kts | 125° |
| 2026-05-04 09:26 | 49.22423 | 7.89893 | 15214 ft | 378 kts | 135° |
| 2026-05-04 09:27 | 49.20553 | 7.92696 | 14974 ft | 376 kts | 139° |
| 2026-05-04 09:27 | 49.18665 | 7.95446 | 14731 ft | 374 kts | 139° |
| 2026-05-04 09:27 | 49.16785 | 7.98190 | 14487 ft | 373 kts | 139° |
| 2026-05-04 09:27 | 49.14909 | 8.00929 | 14240 ft | 372 kts | 139° |
| 2026-05-04 09:28 | 49.13039 | 8.03661 | 14003 ft | 372 kts | 139° |
| 2026-05-04 09:28 | 49.11175 | 8.06379 | 13761 ft | 371 kts | 139° |
| 2026-05-04 09:28 | 49.09311 | 8.09097 | 13492 ft | 369 kts | 139° |
| 2026-05-04 09:28 | 49.08058 | 8.10921 | 13312 ft | 368 kts | 139° |
| 2026-05-04 09:29 | 49.05614 | 8.14463 | 12785 ft | 363 kts | 139° |
| 2026-05-04 09:29 | 49.03792 | 8.17098 | 12211 ft | 360 kts | 139° |
| 2026-05-04 09:29 | 49.01956 | 8.19658 | 11617 ft | 355 kts | 144° |
| 2026-05-04 09:29 | 48.99829 | 8.21481 | 11022 ft | 349 kts | 161° |
| 2026-05-04 09:30 | 48.97497 | 8.22207 | 10761 ft | 335 kts | 178° |
| 2026-05-04 09:30 | 48.95239 | 8.21911 | 10637 ft | 320 kts | 193° |
| 2026-05-04 09:30 | 48.93201 | 8.20754 | 10515 ft | 308 kts | 206° |
| 2026-05-04 09:30 | 48.91357 | 8.19237 | 10392 ft | 295 kts | 207° |